Time;durP1;ratioP1;P1;durP2;ratioP2;P2;SDS_P1;SDS_P2;PMS_P1;PMS_P2;Temp;Humidity;BMP_temperature;BMP_pressure;BME280_temperature;BME280_humidity;BME280_pressure;Samples;Min_cycle;Max_cycle;Signal;HPM_P1;HPM_P2
2023/09/04 00:02:03;;;;;;;49.30;8.13;;;14.90;1.00;;;;;;5034255;28;20409;-81
2023/09/04 00:04:29;;;;;;;46.47;8.00;;;14.90;1.00;;;;;;5021036;28;20419;-81
2023/09/04 00:06:57;;;;;;;45.90;7.70;;;14.80;1.00;;;;;;5022447;28;20498;-80
2023/09/04 00:09:50;;;;;;;47.60;7.73;;;14.80;1.00;;;;;;5016917;28;20184;-79
2023/09/04 00:12:27;;;;;;;48.97;7.97;;;14.70;1.00;;;;;;5027459;28;20455;-78
2023/09/04 00:14:57;;;;;;;44.10;8.50;;;14.70;1.00;;;;;;5030442;28;20785;-79
2023/09/04 00:18:03;;;;;;;44.00;7.93;;;14.70;1.00;;;;;;5025733;28;20412;-78
2023/09/04 00:20:39;;;;;;;51.00;8.23;;;14.60;1.00;;;;;;5030918;28;20408;-78
2023/09/04 00:23:09;;;;;;;47.90;8.33;;;14.60;1.00;;;;;;5026213;28;20758;-78
2023/09/04 00:25:45;;;;;;;44.10;7.70;;;14.60;1.00;;;;;;5028300;28;20892;-78
2023/09/04 00:28:18;;;;;;;46.97;8.13;;;14.60;1.00;;;;;;5027656;28;20401;-78
2023/09/04 00:30:44;;;;;;;42.87;7.73;;;14.90;1.00;;;;;;5018308;28;20416;-78
2023/09/04 00:33:09;;;;;;;47.83;8.13;;;14.60;1.00;;;;;;5022617;28;20401;-78
2023/09/04 00:35:39;;;;;;;51.33;9.53;;;14.40;1.00;;;;;;5021372;28;20207;-78
2023/09/04 00:38:09;;;;;;;46.10;8.77;;;14.40;1.00;;;;;;5024222;28;20188;-78
2023/09/04 00:40:51;;;;;;;48.20;8.80;;;14.40;1.00;;;;;;5020477;28;20394;-79
2023/09/04 00:43:36;;;;;;;44.33;8.50;;;14.50;1.00;;;;;;5024096;28;20459;-77
2023/09/04 00:46:44;;;;;;;51.07;9.50;;;14.40;1.00;;;;;;5033158;28;20406;-78
2023/09/04 00:49:15;;;;;;;46.13;7.57;;;14.40;1.00;;;;;;5015518;28;20455;-79
2023/09/04 00:51:41;;;;;;;49.50;7.90;;;14.30;1.00;;;;;;5020577;28;20494;-78
2023/09/04 00:54:10;;;;;;;49.37;8.50;;;14.30;1.00;;;;;;5025685;28;21020;-78
2023/09/04 00:56:48;;;;;;;51.90;8.00;;;14.30;1.00;;;;;;5029336;28;20172;-81
2023/09/04 01:02:45;;;;;;;51.87;8.27;;;14.30;1.00;;;;;;5014296;28;20794;-81
2023/09/04 01:05:29;;;;;;;42.80;7.80;;;14.20;1.00;;;;;;5032797;28;20423;-80
2023/09/04 01:08:16;;;;;;;43.90;8.30;;;14.40;1.00;;;;;;5023283;28;20924;-79
2023/09/04 01:11:06;;;;;;;42.87;7.77;;;14.20;1.00;;;;;;5028122;28;20468;-79
2023/09/04 01:13:43;;;;;;;47.77;8.70;;;14.20;1.00;;;;;;5017501;28;20454;-79
2023/09/04 01:16:11;;;;;;;44.00;8.10;;;14.10;1.00;;;;;;5023274;28;20458;-79
2023/09/04 01:18:37;;;;;;;45.30;9.20;;;14.20;1.00;;;;;;5021144;28;20416;-79
2023/09/04 01:21:06;;;;;;;46.13;8.37;;;14.10;1.00;;;;;;5022901;28;20775;-79
2023/09/04 01:23:33;;;;;;;44.00;8.87;;;14.10;1.00;;;;;;5017670;28;20830;-79
2023/09/04 01:26:20;;;;;;;45.40;8.57;;;14.10;1.00;;;;;;5015045;28;20482;-79
2023/09/04 01:32:26;;;;;;;46.80;7.80;;;14.10;1.00;;;;;;5030608;28;20373;-79
2023/09/04 01:35:38;;;;;;;46.97;8.70;;;14.10;1.00;;;;;;5017153;28;20485;-79
2023/09/04 01:38:27;;;;;;;51.40;9.10;;;14.00;1.00;;;;;;5020438;28;20452;-79
2023/09/04 01:41:32;;;;;;;48.43;8.60;;;14.00;1.20;;;;;;5032505;28;20412;-79
2023/09/04 01:43:58;;;;;;;45.60;8.13;;;14.00;2.20;;;;;;5015678;28;20486;-79
2023/09/04 01:46:34;;;;;;;44.57;8.47;;;14.00;2.60;;;;;;5047127;28;20409;-79
2023/09/04 01:52:21;;;;;;;45.93;8.20;;;14.00;4.90;;;;;;5024397;28;20445;-79
2023/09/04 01:54:47;;;;;;;52.57;8.17;;;14.00;6.10;;;;;;5029034;28;20452;-79
2023/09/04 01:57:21;;;;;;;49.57;8.90;;;13.90;7.00;;;;;;5024184;28;20188;-76
2023/09/04 01:59:47;;;;;;;48.90;9.20;;;14.00;7.00;;;;;;5048622;28;20594;-76
2023/09/04 02:02:27;;;;;;;49.93;8.43;;;14.00;8.20;;;;;;5015710;28;20424;-76
2023/09/04 02:04:57;;;;;;;45.60;8.47;;;13.90;7.90;;;;;;5026689;28;20204;-76
2023/09/04 02:07:23;;;;;;;46.77;8.23;;;13.90;8.70;;;;;;5031399;28;20426;-78
2023/09/04 02:09:49;;;;;;;49.50;9.03;;;13.90;8.40;;;;;;5028251;28;20498;-76
2023/09/04 02:12:21;;;;;;;46.70;8.60;;;13.90;8.40;;;;;;5031438;28;20618;-76
2023/09/04 02:15:03;;;;;;;46.77;8.20;;;13.90;8.20;;;;;;5029833;28;20203;-76
2023/09/04 02:17:29;;;;;;;44.57;8.80;;;13.90;8.00;;;;;;5017046;28;20786;-76
2023/09/04 02:20:04;;;;;;;47.23;9.43;;;13.80;7.50;;;;;;5023796;28;20469;-76
2023/09/04 02:22:33;;;;;;;46.90;8.50;;;13.80;7.80;;;;;;5021499;28;20168;-76
2023/09/04 02:25:15;;;;;;;44.80;7.53;;;13.80;7.40;;;;;;5047912;28;20816;-76
2023/09/04 02:27:40;;;;;;;47.40;7.87;;;13.80;6.50;;;;;;5024629;28;20415;-76
2023/09/04 02:30:15;;;;;;;46.83;8.30;;;13.90;6.40;;;;;;5027066;28;21033;-76
2023/09/04 02:32:51;;;;;;;44.70;8.40;;;13.80;6.70;;;;;;5023383;28;20230;-76
2023/09/04 02:36:08;;;;;;;44.20;8.20;;;13.80;8.20;;;;;;5026444;28;20451;-76
2023/09/04 02:39:02;;;;;;;44.27;7.53;;;13.70;7.60;;;;;;5024637;28;20469;-76
2023/09/04 02:41:28;;;;;;;48.13;8.00;;;13.70;7.50;;;;;;5015738;28;20404;-77
2023/09/04 02:44:26;;;;;;;50.23;9.37;;;13.70;7.50;;;;;;5019625;28;20412;-76
2023/09/04 02:47:03;;;;;;;46.10;7.97;;;13.70;7.90;;;;;;5032665;28;20176;-76
2023/09/04 02:50:04;;;;;;;53.57;8.00;;;13.70;8.80;;;;;;5023619;28;20441;-75
2023/09/04 02:52:51;;;;;;;53.43;7.77;;;13.60;8.70;;;;;;5023553;28;20411;-76
2023/09/04 02:55:21;;;;;;;47.00;9.50;;;13.50;8.00;;;;;;5029353;28;20969;-76
2023/09/04 02:58:26;;;;;;;49.43;8.47;;;13.60;8.90;;;;;;5036399;28;20952;-79
2023/09/04 03:00:57;;;;;;;47.60;8.60;;;13.50;6.10;;;;;;5035033;28;20426;-79
2023/09/04 03:03:27;;;;;;;50.53;8.80;;;13.50;12.30;;;;;;5022937;28;20454;-78
2023/09/04 03:06:10;;;;;;;45.20;8.50;;;13.50;9.70;;;;;;5036109;28;20492;-79
2023/09/04 03:08:51;;;;;;;54.50;8.23;;;13.50;9.00;;;;;;5035824;28;20451;-79
2023/09/04 03:11:51;;;;;;;45.30;8.00;;;13.40;9.10;;;;;;5035797;28;20426;-77
2023/09/04 03:14:27;;;;;;;45.23;7.90;;;13.40;10.50;;;;;;5025001;28;20452;-76
2023/09/04 03:16:53;;;;;;;45.27;8.10;;;13.30;7.20;;;;;;5030461;28;20458;-76
2023/09/04 03:19:33;;;;;;;44.70;8.70;;;13.30;9.60;;;;;;5028584;28;20474;-76
2023/09/04 03:22:03;;;;;;;45.70;7.20;;;13.30;9.80;;;;;;5014981;28;20181;-76
2023/09/04 03:24:33;;;;;;;47.53;8.63;;;13.30;9.30;;;;;;5024232;28;20402;-76
2023/09/04 03:27:20;;;;;;;41.57;7.70;;;13.30;9.40;;;;;;5036087;28;20453;-77
2023/09/04 03:30:04;;;;;;;46.33;8.97;;;13.30;9.50;;;;;;5023378;28;20428;-76
2023/09/04 03:32:29;;;;;;;42.60;8.00;;;13.20;9.80;;;;;;5027893;28;20419;-76
2023/09/04 03:34:55;;;;;;;45.43;8.40;;;13.20;10.60;;;;;;5026312;28;20429;-76
2023/09/04 03:37:44;;;;;;;45.70;8.80;;;13.20;11.70;;;;;;5016486;28;20184;-77
2023/09/04 03:40:32;;;;;;;48.07;8.60;;;13.20;12.80;;;;;;5016462;28;20246;-76
2023/09/04 03:43:15;;;;;;;46.13;8.10;;;13.20;14.10;;;;;;5024541;28;20929;-79
2023/09/04 03:45:40;;;;;;;50.23;8.13;;;13.20;15.10;;;;;;5019333;28;21064;-79
2023/09/04 03:48:06;;;;;;;48.00;8.87;;;13.20;15.00;;;;;;5025680;28;20447;-80
2023/09/04 03:50:33;;;;;;;44.97;8.47;;;13.20;17.90;;;;;;5023734;28;20177;-80
2023/09/04 03:52:59;;;;;;;47.33;8.53;;;13.30;18.50;;;;;;5030747;28;20593;-80
2023/09/04 03:55:33;;;;;;;45.10;8.10;;;13.20;16.60;;;;;;5022812;28;20455;-80
2023/09/04 04:01:33;;;;;;;46.50;7.97;;;13.20;18.80;;;;;;5026742;28;20469;-81
2023/09/04 04:04:03;;;;;;;52.23;9.37;;;13.30;19.20;;;;;;5032295;28;20431;-81
2023/09/04 04:09:50;;;;;;;52.57;8.00;;;13.10;18.30;;;;;;5018932;28;20397;-80
2023/09/04 04:12:46;;;;;;;44.10;8.20;;;13.10;15.60;;;;;;5022524;28;20402;-81
2023/09/04 04:15:33;;;;;;;49.03;8.07;;;13.10;18.00;;;;;;5018495;28;20188;-80
2023/09/04 04:18:15;;;;;;;47.93;8.80;;;13.10;16.70;;;;;;5033491;28;20469;-80
2023/09/04 04:21:04;;;;;;;47.17;8.33;;;13.10;13.40;;;;;;5045140;28;20423;-80
2023/09/04 04:24:14;;;;;;;44.17;7.90;;;13.10;15.90;;;;;;5030821;28;20430;-81
2023/09/04 04:26:57;;;;;;;47.80;9.50;;;13.10;16.50;;;;;;5015969;28;20424;-80
2023/09/04 04:29:53;;;;;;;46.07;8.23;;;13.10;17.20;;;;;;5021879;28;20628;-81
2023/09/04 04:32:19;;;;;;;44.83;7.87;;;13.00;18.40;;;;;;5029975;28;20494;-81
2023/09/04 04:35:04;;;;;;;43.53;7.10;;;13.00;18.40;;;;;;5029105;28;20547;-81
2023/09/04 04:37:39;;;;;;;46.23;7.90;;;13.00;18.80;;;;;;5025813;28;20177;-81
2023/09/04 04:40:06;;;;;;;47.80;9.13;;;13.00;18.80;;;;;;5034038;28;20495;-80
2023/09/04 04:42:32;;;;;;;45.73;8.60;;;13.00;19.50;;;;;;5029764;28;20416;-80
2023/09/04 04:45:21;;;;;;;44.17;8.47;;;13.00;19.60;;;;;;5033794;28;20537;-81
2023/09/04 04:47:46;;;;;;;44.30;7.93;;;13.00;20.80;;;;;;5026857;28;20683;-81
2023/09/04 04:53:45;;;;;;;45.00;8.10;;;13.00;21.80;;;;;;5018109;28;20203;-80
2023/09/04 04:56:15;;;;;;;50.20;9.40;;;13.10;21.80;;;;;;5032528;28;20837;-82
2023/09/04 04:58:40;;;;;;;47.87;8.87;;;13.10;21.20;;;;;;5028111;28;20420;-82
2023/09/04 05:01:26;;;;;;;43.70;8.20;;;13.10;21.00;;;;;;4991925;28;20424;-83
2023/09/04 05:03:57;;;;;;;42.77;8.57;;;13.10;21.20;;;;;;5024951;28;20184;-82
2023/09/04 05:06:23;;;;;;;46.50;9.37;;;13.10;21.50;;;;;;5033389;28;20427;-81
2023/09/04 05:08:57;;;;;;;55.23;9.53;;;13.30;21.80;;;;;;5023734;28;20972;-82
2023/09/04 05:12:08;;;;;;;44.27;8.67;;;13.20;22.70;;;;;;5025280;28;20184;-82
2023/09/04 05:18:15;;;;;;;49.10;8.70;;;13.20;23.20;;;;;;5029295;28;20390;-82
2023/09/04 05:20:40;;;;;;;51.10;9.37;;;13.30;23.10;;;;;;5018817;28;20424;-82
2023/09/04 05:23:33;;;;;;;48.43;8.90;;;13.30;24.20;;;;;;5025068;28;21023;-82
2023/09/04 05:25:59;;;;;;;46.80;8.43;;;13.40;25.10;;;;;;5022976;28;20176;-81
2023/09/04 05:28:33;;;;;;;49.23;9.57;;;13.40;25.10;;;;;;5031916;28;20421;-81
2023/09/04 05:34:23;;;;;;;52.70;8.60;;;13.50;26.70;;;;;;5026315;28;20457;-82
2023/09/04 05:37:03;;;;;;;49.77;8.80;;;13.60;26.70;;;;;;5031821;28;20441;-81
2023/09/04 05:39:33;;;;;;;44.17;8.03;;;13.70;25.00;;;;;;5024635;28;20945;-81
2023/09/04 05:42:15;;;;;;;48.90;8.00;;;13.70;26.80;;;;;;5032171;28;20428;-82
2023/09/04 05:45:27;;;;;;;44.13;8.20;;;13.80;26.30;;;;;;5028910;28;20501;-82
2023/09/04 05:47:52;;;;;;;54.33;8.70;;;13.80;26.20;;;;;;5022440;28;20430;-82
2023/09/04 05:50:27;;;;;;;49.07;9.03;;;13.90;25.80;;;;;;5030524;28;20765;-82
2023/09/04 05:52:57;;;;;;;46.37;9.83;;;13.90;29.70;;;;;;5026990;28;20172;-82
2023/09/04 05:55:40;;;;;;;45.87;9.07;;;14.00;26.70;;;;;;5024341;28;20487;-82
2023/09/04 05:58:15;;;;;;;48.80;8.80;;;14.20;23.30;;;;;;5040656;28;20767;-82
2023/09/04 06:01:23;;;;;;;49.63;8.50;;;14.20;29.20;;;;;;5024103;28;20831;-81
2023/09/04 06:04:11;;;;;;;42.50;8.13;;;14.20;25.80;;;;;;5026157;28;20752;-82
2023/09/04 06:06:38;;;;;;;45.27;8.97;;;14.40;22.80;;;;;;5026054;28;20427;-82
2023/09/04 06:09:48;;;;;;;45.00;7.80;;;14.40;25.70;;;;;;5026257;28;20453;-81
2023/09/04 06:12:14;;;;;;;45.77;8.33;;;14.50;26.80;;;;;;5044422;28;20420;-82
2023/09/04 06:14:41;;;;;;;42.80;8.43;;;14.70;26.70;;;;;;5028516;28;20547;-81
2023/09/04 06:17:07;;;;;;;46.63;8.90;;;14.70;27.60;;;;;;5029971;28;20911;-82
2023/09/04 06:19:33;;;;;;;45.57;8.80;;;14.80;25.90;;;;;;5021379;28;20185;-82
2023/09/04 06:21:58;;;;;;;50.13;8.63;;;14.90;26.50;;;;;;5021575;28;20409;-82
2023/09/04 06:24:24;;;;;;;45.40;8.97;;;14.90;29.70;;;;;;5022747;28;20185;-81
2023/09/04 06:26:51;;;;;;;49.43;8.10;;;15.00;35.00;;;;;;5026608;28;20268;-81
2023/09/04 06:29:21;;;;;;;46.00;8.13;;;15.20;25.80;;;;;;5019546;28;20187;-81
2023/09/04 06:31:57;;;;;;;48.73;8.53;;;15.30;26.60;;;;;;5023385;28;20413;-81
2023/09/04 06:34:28;;;;;;;49.90;8.50;;;15.30;25.70;;;;;;5032157;28;20655;-81
2023/09/04 06:36:57;;;;;;;65.70;8.50;;;15.50;21.30;;;;;;5025360;28;20757;-81
2023/09/04 06:39:39;;;;;;;44.60;8.03;;;15.80;23.00;;;;;;5023148;28;20744;-81
2023/09/04 06:42:09;;;;;;;49.97;7.60;;;15.60;20.10;;;;;;5027310;28;20402;-81
2023/09/04 06:44:39;;;;;;;50.03;8.07;;;15.80;16.30;;;;;;5029804;28;20768;-81
2023/09/04 06:47:05;;;;;;;52.30;7.97;;;15.90;17.50;;;;;;5035905;28;20418;-81
2023/09/04 06:49:31;;;;;;;45.90;7.00;;;15.90;9.70;;;;;;5031874;28;20463;-81
2023/09/04 06:52:21;;;;;;;43.07;6.23;;;16.00;6.00;;;;;;5026289;28;20186;-82
2023/09/04 06:55:27;;;;;;;44.87;6.20;;;16.10;5.30;;;;;;5022501;28;21185;-81
2023/09/04 06:57:53;;;;;;;46.40;6.97;;;16.20;1.00;;;;;;5025082;28;20962;-81
2023/09/04 07:00:34;;;;;;;48.03;6.77;;;16.30;1.00;;;;;;5028598;28;20412;-81
2023/09/04 07:03:04;;;;;;;48.43;6.77;;;16.30;1.00;;;;;;5023385;28;20170;-82
2023/09/04 07:06:03;;;;;;;40.57;5.80;;;16.40;1.00;;;;;;5022928;28;20388;-82
2023/09/04 07:08:52;;;;;;;42.23;5.37;;;16.50;1.00;;;;;;5034579;28;20490;-82
2023/09/04 07:11:22;;;;;;;45.13;5.60;;;16.70;1.00;;;;;;5034834;28;20415;-82
2023/09/04 07:13:57;;;;;;;40.60;5.63;;;16.80;1.00;;;;;;5026974;28;20400;-82
2023/09/04 07:16:39;;;;;;;41.00;5.90;;;16.90;1.00;;;;;;5030535;28;20519;-82
2023/09/04 07:19:50;;;;;;;41.50;4.87;;;17.00;1.00;;;;;;5030139;28;20463;-82
2023/09/04 07:22:45;;;;;;;38.53;4.97;;;17.20;1.00;;;;;;5015661;28;20495;-81
2023/09/04 07:25:21;;;;;;;43.37;4.63;;;17.40;1.00;;;;;;5028325;28;20421;-81
2023/09/04 07:31:57;;;;;;;37.80;4.63;;;17.60;1.00;;;;;;5031632;28;20421;-81
2023/09/04 07:34:27;;;;;;;42.73;4.70;;;17.70;1.00;;;;;;5027279;28;20444;-81
2023/09/04 07:37:03;;;;;;;37.60;4.63;;;17.90;1.00;;;;;;5026772;28;20751;-81
2023/09/04 07:39:45;;;;;;;36.77;4.50;;;18.00;1.00;;;;;;5025454;28;20422;-82
2023/09/04 07:42:22;;;;;;;38.27;4.20;;;18.10;1.00;;;;;;5025185;28;20992;-81
2023/09/04 07:45:32;;;;;;;37.20;4.23;;;18.20;1.00;;;;;;5034612;28;20432;-81
2023/09/04 07:48:15;;;;;;;41.20;4.40;;;18.50;1.00;;;;;;5027411;28;20423;-81
2023/09/04 07:51:05;;;;;;;37.63;4.47;;;18.50;1.00;;;;;;5035159;28;20422;-81
2023/09/04 07:53:30;;;;;;;39.90;4.03;;;18.70;1.00;;;;;;5025241;28;20426;-81
2023/09/04 07:56:09;;;;;;;38.93;4.30;;;18.70;1.00;;;;;;5018593;28;20470;-81
2023/09/04 07:59:14;;;;;;;47.30;4.10;;;18.80;1.00;;;;;;5030400;28;20573;-81
2023/09/04 08:01:45;;;;;;;36.37;3.80;;;18.90;1.00;;;;;;5031782;28;20853;-81
2023/09/04 08:04:15;;;;;;;38.80;4.50;;;19.00;1.00;;;;;;5026245;28;20426;-82
2023/09/04 08:06:51;;;;;;;36.30;3.80;;;19.10;1.00;;;;;;5029628;28;20416;-82
2023/09/04 08:09:21;;;;;;;34.67;3.90;;;19.10;1.00;;;;;;5014225;28;20841;-82
2023/09/04 08:11:51;;;;;;;35.97;3.67;;;19.20;1.00;;;;;;5027582;28;20448;-82
2023/09/04 08:14:21;;;;;;;36.00;3.97;;;19.30;1.00;;;;;;5019216;28;20873;-82
2023/09/04 08:16:51;;;;;;;36.23;3.60;;;19.30;1.00;;;;;;5025771;28;20817;-82
2023/09/04 08:19:21;;;;;;;36.30;4.20;;;19.40;1.00;;;;;;5027594;28;20440;-81
2023/09/04 08:22:03;;;;;;;36.90;3.90;;;19.50;1.00;;;;;;5038740;28;20433;-82
2023/09/04 08:24:39;;;;;;;35.33;3.73;;;19.50;1.00;;;;;;5026410;28;20434;-82
2023/09/04 08:27:21;;;;;;;35.53;3.93;;;19.70;1.00;;;;;;5030876;28;20416;-82
2023/09/04 08:29:47;;;;;;;35.13;4.13;;;19.80;1.00;;;;;;5027175;28;20452;-82
2023/09/04 08:32:12;;;;;;;36.07;3.87;;;19.90;1.00;;;;;;5029263;28;21140;-82
2023/09/04 08:34:39;;;;;;;43.30;3.83;;;20.00;1.00;;;;;;5028364;28;20177;-82
2023/09/04 08:37:21;;;;;;;37.87;3.90;;;20.10;1.00;;;;;;5023643;28;20649;-82
2023/09/04 08:40:09;;;;;;;38.43;3.70;;;20.20;1.00;;;;;;5029554;28;20828;-81
2023/09/04 08:42:54;;;;;;;38.90;4.13;;;20.30;1.00;;;;;;5032873;28;20421;-82
2023/09/04 08:45:44;;;;;;;35.37;3.47;;;20.40;1.00;;;;;;5018033;28;20425;-82
2023/09/04 08:48:13;;;;;;;35.63;4.00;;;20.50;1.00;;;;;;5023363;28;20421;-82
2023/09/04 08:50:40;;;;;;;37.00;3.37;;;20.60;1.00;;;;;;5007814;28;20446;-82
2023/09/04 08:53:09;;;;;;;37.27;3.80;;;20.70;1.00;;;;;;5024497;28;20417;-82
2023/09/04 08:55:36;;;;;;;37.67;3.60;;;20.80;1.00;;;;;;5029126;28;20431;-82
2023/09/04 08:58:03;;;;;;;38.23;3.47;;;20.80;1.00;;;;;;5023329;28;20415;-82
2023/09/04 09:00:29;;;;;;;36.50;3.40;;;21.00;1.00;;;;;;5017272;28;20399;-83
2023/09/04 09:02:58;;;;;;;35.97;3.40;;;21.10;1.00;;;;;;5022176;28;21043;-82
2023/09/04 09:05:28;;;;;;;46.20;3.50;;;21.10;1.00;;;;;;5025722;28;20918;-82
2023/09/04 09:08:05;;;;;;;39.70;3.67;;;21.20;1.00;;;;;;5028082;28;20443;-82
2023/09/04 09:10:33;;;;;;;36.10;3.27;;;21.30;1.00;;;;;;5020760;28;20429;-82
2023/09/04 09:13:03;;;;;;;36.60;3.30;;;21.40;1.00;;;;;;5029339;28;20422;-82
2023/09/04 09:15:32;;;;;;;37.50;3.60;;;21.50;1.00;;;;;;5016281;28;20489;-82
2023/09/04 09:17:58;;;;;;;37.90;2.80;;;21.60;1.00;;;;;;5030989;28;20504;-82
2023/09/04 09:20:44;;;;;;;35.23;3.00;;;21.70;1.00;;;;;;5021628;28;20428;-82
2023/09/04 09:23:14;;;;;;;35.43;3.47;;;21.90;1.00;;;;;;5030463;28;20514;-82
2023/09/04 09:26:32;;;;;;;34.70;3.77;;;21.90;1.00;;;;;;5029767;28;20779;-82
2023/09/04 09:29:11;;;;;;;36.10;4.20;;;22.00;1.00;;;;;;5029627;28;20431;-82
2023/09/04 09:31:42;;;;;;;33.13;3.83;;;22.10;1.00;;;;;;5032410;28;20459;-82
2023/09/04 09:34:09;;;;;;;34.10;4.40;;;22.10;1.00;;;;;;5021918;28;20485;-81
2023/09/04 09:36:39;;;;;;;34.37;4.40;;;22.10;1.00;;;;;;5030451;28;20494;-82
2023/09/04 09:39:38;;;;;;;33.00;4.00;;;22.30;1.00;;;;;;5028831;28;20419;-82
2023/09/04 09:42:10;;;;;;;33.57;4.03;;;22.30;1.00;;;;;;5027860;28;20378;-82
2023/09/04 09:44:35;;;;;;;32.93;3.80;;;22.50;1.00;;;;;;5021416;28;20795;-82
2023/09/04 09:47:39;;;;;;;37.23;4.40;;;23.90;1.00;;;;;;5028727;28;20398;-83
2023/09/04 09:50:40;;;;;;;33.60;3.90;;;22.70;1.00;;;;;;5025542;28;20192;-83
2023/09/04 09:53:09;;;;;;;35.10;4.23;;;22.80;1.00;;;;;;5020200;28;20387;-83
2023/09/04 09:55:48;;;;;;;37.13;4.17;;;22.90;1.00;;;;;;5025146;28;20974;-83
2023/09/04 09:58:33;;;;;;;33.57;4.17;;;23.00;1.00;;;;;;5023265;28;20948;-83
2023/09/04 10:00:59;;;;;;;34.00;3.80;;;23.20;1.00;;;;;;5032497;28;20423;-83
2023/09/04 10:03:28;;;;;;;31.10;3.10;;;23.20;1.00;;;;;;5021885;28;20428;-82
2023/09/04 10:06:05;;;;;;;31.57;3.10;;;23.30;1.00;;;;;;5031218;28;20993;-82
2023/09/04 10:08:49;;;;;;;31.50;3.40;;;23.50;1.00;;;;;;5022151;28;20788;-83
2023/09/04 10:11:16;;;;;;;30.10;2.87;;;23.50;1.00;;;;;;5025453;28;20517;-82
2023/09/04 10:14:21;;;;;;;30.80;2.57;;;23.60;1.00;;;;;;5022628;28;20413;-83
2023/09/04 10:17:01;;;;;;;30.87;2.67;;;23.60;1.00;;;;;;5023739;28;20468;-82
2023/09/04 10:19:36;;;;;;;29.27;2.10;;;23.70;1.00;;;;;;5031984;28;20434;-82
2023/09/04 10:22:06;;;;;;;30.70;2.70;;;23.80;1.00;;;;;;5031199;28;20848;-82
2023/09/04 10:24:47;;;;;;;30.30;2.53;;;23.80;1.00;;;;;;5025426;28;20407;-82
2023/09/04 10:27:49;;;;;;;33.07;2.90;;;23.90;1.00;;;;;;5018427;28;20429;-82
2023/09/04 10:30:40;;;;;;;31.63;2.37;;;24.10;1.00;;;;;;5031694;28;20473;-82
2023/09/04 10:33:27;;;;;;;29.17;2.27;;;24.20;1.00;;;;;;5031419;28;20417;-82
2023/09/04 10:36:09;;;;;;;28.77;1.90;;;24.40;1.00;;;;;;5020655;28;20514;-83
2023/09/04 10:38:58;;;;;;;29.60;2.30;;;24.30;1.00;;;;;;5025514;28;20427;-83
2023/09/04 10:41:40;;;;;;;29.27;2.20;;;24.40;1.00;;;;;;5033868;28;20840;-83
2023/09/04 10:44:08;;;;;;;29.60;2.47;;;24.50;1.00;;;;;;5033922;28;20406;-83
2023/09/04 10:46:55;;;;;;;29.97;2.40;;;24.60;1.00;;;;;;5032842;28;20770;-83
2023/09/04 10:49:33;;;;;;;32.43;2.17;;;24.70;1.00;;;;;;5030306;28;20438;-83
2023/09/04 10:52:05;;;;;;;28.80;1.77;;;24.80;1.00;;;;;;5029741;28;20443;-84
2023/09/04 10:54:33;;;;;;;30.17;1.90;;;24.90;1.00;;;;;;5020060;28;20472;-83
2023/09/04 11:00:38;;;;;;;29.30;2.10;;;25.00;1.00;;;;;;5026518;28;20451;-89
2023/09/04 11:03:13;;;;;;;30.30;2.00;;;25.20;1.00;;;;;;5032941;28;20889;-85
2023/09/04 11:06:09;;;;;;;28.80;2.20;;;25.30;1.00;;;;;;5034490;28;20430;-86
2023/09/04 11:08:50;;;;;;;31.03;1.90;;;25.40;1.00;;;;;;5015707;28;20773;-85
2023/09/04 11:12:03;;;;;;;29.30;2.17;;;25.50;1.00;;;;;;5034248;28;20439;-86
2023/09/04 11:14:33;;;;;;;30.50;2.37;;;25.60;1.00;;;;;;5032410;28;20526;-86
2023/09/04 11:20:45;;;;;;;29.07;2.33;;;25.70;1.00;;;;;;5030079;28;20805;-87
2023/09/04 11:23:24;;;;;;;28.73;2.30;;;25.70;1.00;;;;;;5030305;28;20737;-81
2023/09/04 11:26:33;;;;;;;29.23;1.80;;;25.70;1.00;;;;;;5029325;28;20825;-81
2023/09/04 11:29:07;;;;;;;33.20;2.23;;;25.80;1.00;;;;;;5025973;28;20417;-81
2023/09/04 11:31:34;;;;;;;29.93;1.80;;;25.80;1.00;;;;;;5030663;28;20432;-81
2023/09/04 11:34:00;;;;;;;28.57;2.40;;;25.80;1.00;;;;;;5025286;28;20508;-81
2023/09/04 11:36:26;;;;;;;30.67;1.90;;;26.00;1.00;;;;;;5018636;28;20537;-81
2023/09/04 11:39:06;;;;;;;29.67;2.40;;;26.00;1.00;;;;;;5028345;28;20958;-81
2023/09/04 11:41:32;;;;;;;28.63;1.97;;;26.20;1.00;;;;;;5015446;28;20257;-81
2023/09/04 11:43:59;;;;;;;28.77;2.07;;;26.20;1.00;;;;;;5021847;28;20445;-81
2023/09/04 11:46:27;;;;;;;29.33;2.10;;;26.20;1.00;;;;;;5020038;28;20467;-80
2023/09/04 11:48:53;;;;;;;28.90;2.10;;;26.30;1.00;;;;;;5018417;28;20433;-81
2023/09/04 11:51:27;;;;;;;28.50;2.10;;;26.50;1.00;;;;;;5014486;28;20487;-81
2023/09/04 11:54:31;;;;;;;28.70;1.93;;;26.50;1.00;;;;;;5029050;28;20237;-85
2023/09/04 12:00:19;;;;;;;29.03;2.10;;;26.60;1.00;;;;;;5016627;28;20424;-95
2023/09/04 12:02:51;;;;;;;29.23;2.00;;;26.70;1.00;;;;;;5015650;28;20407;-84
2023/09/04 12:06:09;;;;;;;29.90;2.13;;;26.80;1.00;;;;;;5034997;28;20524;-84
2023/09/04 12:08:45;;;;;;;30.30;2.00;;;26.80;1.00;;;;;;5028423;28;20523;-84
2023/09/04 12:11:11;;;;;;;30.80;2.30;;;26.90;1.00;;;;;;5025458;28;20481;-84
2023/09/04 12:13:37;;;;;;;30.00;2.23;;;26.90;1.00;;;;;;5021250;28;20446;-85
2023/09/04 12:16:16;;;;;;;29.27;2.07;;;27.00;1.00;;;;;;5030071;28;20202;-83
2023/09/04 12:19:27;;;;;;;29.23;2.20;;;27.10;1.00;;;;;;5024773;28;20188;-84
2023/09/04 12:21:52;;;;;;;32.03;2.43;;;27.10;1.00;;;;;;5031638;28;20409;-83
2023/09/04 12:24:21;;;;;;;28.63;2.20;;;27.10;1.00;;;;;;5034042;28;20436;-84
2023/09/04 12:27:21;;;;;;;29.80;2.30;;;27.10;1.00;;;;;;5029294;28;20181;-83
2023/09/04 12:29:51;;;;;;;29.23;2.00;;;27.10;1.00;;;;;;5020333;28;20453;-83
2023/09/04 12:35:43;;;;;;;29.80;1.70;;;27.30;1.00;;;;;;5035210;28;20456;-90
2023/09/04 12:38:50;;;;;;;31.07;2.30;;;27.40;1.00;;;;;;5018726;28;20461;-90
2023/09/04 12:45:27;;;;;;;30.20;2.10;;;27.50;1.00;;;;;;5034582;28;20424;-92
2023/09/04 12:51:15;;;;;;;30.47;2.00;;;27.60;1.00;;;;;;5028818;28;20953;-92
2023/09/04 12:53:51;;;;;;;28.70;1.90;;;27.70;1.00;;;;;;5026476;28;21162;-92
2023/09/04 12:56:21;;;;;;;32.60;2.43;;;27.70;1.00;;;;;;5033719;28;20451;-92
2023/09/04 12:58:47;;;;;;;29.43;2.07;;;27.70;1.00;;;;;;5027724;28;20431;-91
2023/09/04 13:01:27;;;;;;;35.87;2.50;;;27.80;1.00;;;;;;5025003;28;20823;-92
2023/09/04 13:07:21;;;;;;;29.67;2.30;;;27.80;1.00;;;;;;5034867;28;20471;-91
2023/09/04 13:09:49;;;;;;;30.03;2.30;;;27.90;1.00;;;;;;5025457;28;20925;-91
2023/09/04 13:12:27;;;;;;;29.80;2.23;;;27.90;1.00;;;;;;5013740;28;20427;-91
2023/09/04 13:15:21;;;;;;;30.30;2.00;;;28.00;1.00;;;;;;5033129;28;20520;-91
2023/09/04 13:17:52;;;;;;;29.53;2.23;;;28.00;1.00;;;;;;5024881;28;20530;-91
2023/09/04 13:20:56;;;;;;;34.07;2.30;;;28.10;1.00;;;;;;5024752;28;20501;-91
2023/09/04 13:23:57;;;;;;;29.70;2.20;;;28.10;1.00;;;;;;5033489;28;20413;-91
2023/09/04 13:43:50;;;;;;;29.70;2.03;;;28.50;1.00;;;;;;5021777;28;20429;-91
2023/09/04 13:46:33;;;;;;;30.30;2.40;;;28.50;1.00;;;;;;5031206;28;20435;-91
2023/09/04 13:49:21;;;;;;;28.90;2.10;;;28.50;1.00;;;;;;5024449;28;20430;-86
2023/09/04 13:51:57;;;;;;;31.20;2.27;;;28.60;1.00;;;;;;5027055;28;20424;-84
2023/09/04 13:54:57;;;;;;;34.00;2.10;;;28.70;1.00;;;;;;5023065;28;20491;-82
2023/09/04 13:58:03;;;;;;;31.80;2.40;;;28.70;1.00;;;;;;5014506;28;20955;-85
2023/09/04 14:00:33;;;;;;;29.47;1.90;;;28.70;1.00;;;;;;5024735;28;20425;-83
2023/09/04 14:03:09;;;;;;;31.43;2.20;;;28.80;1.00;;;;;;5018250;28;20440;-84
2023/09/04 14:05:39;;;;;;;30.97;2.50;;;28.90;1.00;;;;;;5022044;28;20486;-82
2023/09/04 14:08:06;;;;;;;29.10;2.00;;;28.90;1.00;;;;;;5025906;28;20473;-83
2023/09/04 14:10:33;;;;;;;29.83;2.17;;;28.90;1.00;;;;;;5023617;28;20429;-84
2023/09/04 14:12:59;;;;;;;31.30;2.20;;;28.90;1.00;;;;;;5031203;28;20418;-81
2023/09/04 14:15:27;;;;;;;28.90;1.80;;;28.90;1.00;;;;;;5030965;28;20563;-81
2023/09/04 14:18:09;;;;;;;32.10;2.17;;;29.00;1.00;;;;;;5030535;28;20176;-81
2023/09/04 14:20:40;;;;;;;30.40;2.37;;;28.90;1.00;;;;;;5026161;28;20430;-88
2023/09/04 14:23:22;;;;;;;30.80;1.90;;;28.90;1.00;;;;;;5016735;28;20477;-86
2023/09/04 14:25:51;;;;;;;29.40;1.97;;;29.00;1.00;;;;;;5020767;28;20442;-88
2023/09/04 14:28:21;;;;;;;33.23;2.20;;;29.00;1.00;;;;;;5028814;28;20423;-86
2023/09/04 14:31:16;;;;;;;31.13;1.87;;;29.00;1.00;;;;;;5032816;28;20434;-89
2023/09/04 14:33:45;;;;;;;28.90;2.00;;;28.90;1.00;;;;;;5028124;28;20784;-82
2023/09/04 14:36:11;;;;;;;30.30;2.20;;;28.90;1.00;;;;;;5026272;28;20449;-82
2023/09/04 14:38:39;;;;;;;34.53;2.10;;;28.80;1.00;;;;;;5024240;28;20429;-83
2023/09/04 14:41:22;;;;;;;32.17;2.13;;;28.90;1.00;;;;;;5032318;28;20171;-83
2023/09/04 14:43:48;;;;;;;31.30;1.90;;;28.90;1.00;;;;;;5028735;28;20437;-81
2023/09/04 14:46:19;;;;;;;30.27;1.70;;;29.00;1.00;;;;;;5026695;28;20431;-80
2023/09/04 14:48:57;;;;;;;30.57;2.17;;;29.20;1.00;;;;;;5020577;28;20427;-84
2023/09/04 14:51:23;;;;;;;30.43;1.67;;;29.10;1.00;;;;;;5031236;28;20445;-84
2023/09/04 14:53:53;;;;;;;30.70;1.80;;;29.20;1.00;;;;;;5027657;28;20436;-84